sensor_id;sensor_type;location;lat;lon;timestamp;pressure;altitude;pressure_sealevel;temperature;humidity
28310;BME280;15571;50.974;13.936;2024-02-26T00:02:50;98891.44;;;6.58;100.00
28310;BME280;15571;50.974;13.936;2024-02-26T00:05:52;98891.34;;;6.67;100.00
28310;BME280;15571;50.974;13.936;2024-02-26T00:08:54;98884.41;;;6.66;100.00
28310;BME280;15571;50.974;13.936;2024-02-26T00:11:57;98883.69;;;6.53;100.00
28310;BME280;15571;50.974;13.936;2024-02-26T00:15:01;98892.31;;;6.59;100.00
28310;BME280;15571;50.974;13.936;2024-02-26T00:18:05;98887.16;;;6.52;100.00
28310;BME280;15571;50.974;13.936;2024-02-26T00:21:07;98883.06;;;6.28;100.00
28310;BME280;15571;50.974;13.936;2024-02-26T00:24:09;98885.81;;;6.16;100.00
28310;BME280;15571;50.974;13.936;2024-02-26T00:27:11;98880.59;;;6.17;100.00
28310;BME280;15571;50.974;13.936;2024-02-26T00:30:20;98881.47;;;6.15;100.00
28310;BME280;15571;50.974;13.936;2024-02-26T00:33:23;98875.47;;;6.08;100.00
28310;BME280;15571;50.974;13.936;2024-02-26T00:36:25;98872.91;;;6.06;100.00
28310;BME280;15571;50.974;13.936;2024-02-26T00:39:26;98881.41;;;6.21;100.00
28310;BME280;15571;50.974;13.936;2024-02-26T00:42:28;98877.13;;;6.15;100.00
28310;BME280;15571;50.974;13.936;2024-02-26T00:45:32;98869.19;;;6.32;100.00
28310;BME280;15571;50.974;13.936;2024-02-26T00:48:34;98864.94;;;6.23;100.00
28310;BME280;15571;50.974;13.936;2024-02-26T00:51:35;98864.00;;;6.29;100.00
28310;BME280;15571;50.974;13.936;2024-02-26T00:54:37;98872.66;;;6.31;100.00
28310;BME280;15571;50.974;13.936;2024-02-26T00:57:39;98864.19;;;6.12;100.00
28310;BME280;15571;50.974;13.936;2024-02-26T01:00:43;98872.00;;;6.12;100.00
28310;BME280;15571;50.974;13.936;2024-02-26T01:03:45;98861.59;;;6.11;100.00
28310;BME280;15571;50.974;13.936;2024-02-26T01:06:47;98859.94;;;5.99;100.00
28310;BME280;15571;50.974;13.936;2024-02-26T01:09:49;98860.03;;;5.83;100.00
28310;BME280;15571;50.974;13.936;2024-02-26T01:12:51;98854.84;;;5.83;100.00
28310;BME280;15571;50.974;13.936;2024-02-26T01:15:54;98857.50;;;5.79;100.00
28310;BME280;15571;50.974;13.936;2024-02-26T01:18:56;98851.44;;;5.78;100.00
28310;BME280;15571;50.974;13.936;2024-02-26T01:22:01;98854.91;;;5.79;100.00
28310;BME280;15571;50.974;13.936;2024-02-26T01:25:03;98852.19;;;5.91;100.00
28310;BME280;15571;50.974;13.936;2024-02-26T01:28:05;98847.00;;;5.91;100.00
28310;BME280;15571;50.974;13.936;2024-02-26T01:31:10;98843.59;;;5.86;100.00
28310;BME280;15571;50.974;13.936;2024-02-26T01:34:12;98844.50;;;5.80;100.00
28310;BME280;15571;50.974;13.936;2024-02-26T01:37:14;98835.78;;;5.87;100.00
28310;BME280;15571;50.974;13.936;2024-02-26T01:40:16;98830.50;;;6.01;100.00
28310;BME280;15571;50.974;13.936;2024-02-26T01:43:20;98817.50;;;5.98;100.00
28310;BME280;15571;50.974;13.936;2024-02-26T01:46:23;98814.09;;;5.93;100.00
28310;BME280;15571;50.974;13.936;2024-02-26T01:49:25;98812.31;;;6.01;100.00
28310;BME280;15571;50.974;13.936;2024-02-26T01:52:31;98814.13;;;5.90;100.00
28310;BME280;15571;50.974;13.936;2024-02-26T01:55:33;98803.81;;;5.81;100.00
28310;BME280;15571;50.974;13.936;2024-02-26T01:58:35;98802.16;;;5.73;100.00
28310;BME280;15571;50.974;13.936;2024-02-26T02:01:39;98809.09;;;5.68;100.00
28310;BME280;15571;50.974;13.936;2024-02-26T02:04:45;98807.44;;;5.64;100.00
28310;BME280;15571;50.974;13.936;2024-02-26T02:07:46;98794.47;;;5.63;100.00
28310;BME280;15571;50.974;13.936;2024-02-26T02:10:49;98794.50;;;5.59;100.00
28310;BME280;15571;50.974;13.936;2024-02-26T02:13:52;98796.22;;;5.57;100.00
28310;BME280;15571;50.974;13.936;2024-02-26T02:16:55;98793.53;;;5.68;100.00
28310;BME280;15571;50.974;13.936;2024-02-26T02:19:57;98795.97;;;5.88;100.00
28310;BME280;15571;50.974;13.936;2024-02-26T02:23:00;98785.78;;;5.64;100.00
28310;BME280;15571;50.974;13.936;2024-02-26T02:26:03;98791.91;;;5.58;100.00
28310;BME280;15571;50.974;13.936;2024-02-26T02:29:05;98785.91;;;5.50;100.00
28310;BME280;15571;50.974;13.936;2024-02-26T02:32:08;98792.00;;;5.45;100.00
28310;BME280;15571;50.974;13.936;2024-02-26T02:35:10;98792.00;;;5.42;100.00
28310;BME280;15571;50.974;13.936;2024-02-26T02:38:13;98797.22;;;5.42;100.00
28310;BME280;15571;50.974;13.936;2024-02-26T02:41:15;98793.75;;;5.40;100.00
28310;BME280;15571;50.974;13.936;2024-02-26T02:44:17;98788.59;;;5.36;100.00
28310;BME280;15571;50.974;13.936;2024-02-26T02:47:22;98789.50;;;5.32;100.00
28310;BME280;15571;50.974;13.936;2024-02-26T02:50:24;98792.91;;;5.40;100.00
28310;BME280;15571;50.974;13.936;2024-02-26T02:53:30;98790.34;;;5.35;100.00
28310;BME280;15571;50.974;13.936;2024-02-26T02:56:32;98790.34;;;5.35;100.00
28310;BME280;15571;50.974;13.936;2024-02-26T02:59:33;98791.25;;;5.33;100.00
28310;BME280;15571;50.974;13.936;2024-02-26T03:02:35;98792.09;;;5.32;100.00
28310;BME280;15571;50.974;13.936;2024-02-26T03:05:37;98791.28;;;5.28;100.00
28310;BME280;15571;50.974;13.936;2024-02-26T03:08:43;98794.72;;;5.25;100.00
28310;BME280;15571;50.974;13.936;2024-02-26T03:11:48;98799.97;;;5.22;100.00
28310;BME280;15571;50.974;13.936;2024-02-26T03:14:50;98799.97;;;5.22;100.00
28310;BME280;15571;50.974;13.936;2024-02-26T03:17:54;98799.13;;;5.19;100.00
28310;BME280;15571;50.974;13.936;2024-02-26T03:20:56;98801.72;;;5.16;100.00
28310;BME280;15571;50.974;13.936;2024-02-26T03:23:59;98799.13;;;5.12;100.00
28310;BME280;15571;50.974;13.936;2024-02-26T03:27:01;98802.59;;;5.18;100.00
28310;BME280;15571;50.974;13.936;2024-02-26T03:30:05;98799.13;;;5.12;100.00
28310;BME280;15571;50.974;13.936;2024-02-26T03:33:07;98809.53;;;5.08;100.00
28310;BME280;15571;50.974;13.936;2024-02-26T03:36:09;98805.22;;;5.08;100.00
28310;BME280;15571;50.974;13.936;2024-02-26T03:39:13;98809.56;;;5.06;100.00
28310;BME280;15571;50.974;13.936;2024-02-26T03:42:17;98818.22;;;5.05;100.00
28310;BME280;15571;50.974;13.936;2024-02-26T03:45:19;98818.19;;;5.08;100.00
28310;BME280;15571;50.974;13.936;2024-02-26T03:48:21;98826.81;;;5.10;100.00
28310;BME280;15571;50.974;13.936;2024-02-26T03:51:23;98821.66;;;5.09;100.00
28310;BME280;15571;50.974;13.936;2024-02-26T03:54:26;98816.31;;;5.32;100.00
28310;BME280;15571;50.974;13.936;2024-02-26T03:57:28;98820.66;;;5.25;100.00
28310;BME280;15571;50.974;13.936;2024-02-26T04:00:30;98828.47;;;5.24;100.00
28310;BME280;15571;50.974;13.936;2024-02-26T04:03:32;98833.75;;;5.10;100.00
28310;BME280;15571;50.974;13.936;2024-02-26T04:06:34;98833.81;;;4.99;100.00
28310;BME280;15571;50.974;13.936;2024-02-26T04:09:38;98830.25;;;5.17;100.00
28310;BME280;15571;50.974;13.936;2024-02-26T04:12:40;98835.38;;;5.25;100.00
28310;BME280;15571;50.974;13.936;2024-02-26T04:15:43;98837.91;;;5.36;100.00
28310;BME280;15571;50.974;13.936;2024-02-26T04:18:45;98834.59;;;5.12;100.00
28310;BME280;15571;50.974;13.936;2024-02-26T04:21:47;98847.44;;;5.38;100.00
28310;BME280;15571;50.974;13.936;2024-02-26T04:24:50;98830.13;;;5.34;100.00
28310;BME280;15571;50.974;13.936;2024-02-26T04:27:52;98840.50;;;5.37;100.00
28310;BME280;15571;50.974;13.936;2024-02-26T04:30:54;98841.41;;;5.30;100.00
28310;BME280;15571;50.974;13.936;2024-02-26T04:33:58;98836.13;;;5.45;100.00
28310;BME280;15571;50.974;13.936;2024-02-26T04:37:03;98838.66;;;5.55;100.00
28310;BME280;15571;50.974;13.936;2024-02-26T04:40:11;98838.66;;;5.52;100.00
28310;BME280;15571;50.974;13.936;2024-02-26T04:43:13;98845.75;;;5.29;100.00
28310;BME280;15571;50.974;13.936;2024-02-26T04:46:15;98856.03;;;5.43;100.00
28310;BME280;15571;50.974;13.936;2024-02-26T04:49:16;98852.53;;;5.52;100.00
28310;BME280;15571;50.974;13.936;2024-02-26T04:52:18;98849.13;;;5.39;100.00
28310;BME280;15571;50.974;13.936;2024-02-26T04:55:22;98853.44;;;5.43;100.00
28310;BME280;15571;50.974;13.936;2024-02-26T04:58:23;98856.03;;;5.43;100.00
28310;BME280;15571;50.974;13.936;2024-02-26T05:01:25;98851.78;;;5.28;100.00
28310;BME280;15571;50.974;13.936;2024-02-26T05:04:27;98850.00;;;5.37;100.00
28310;BME280;15571;50.974;13.936;2024-02-26T05:07:37;98856.09;;;5.37;100.00
28310;BME280;15571;50.974;13.936;2024-02-26T05:10:42;98860.38;;;5.37;100.00
28310;BME280;15571;50.974;13.936;2024-02-26T05:13:44;98865.53;;;5.46;100.00
28310;BME280;15571;50.974;13.936;2024-02-26T05:16:46;98859.47;;;5.45;100.00
28310;BME280;15571;50.974;13.936;2024-02-26T05:19:47;98864.75;;;5.33;100.00
28310;BME280;15571;50.974;13.936;2024-02-26T05:22:49;98867.34;;;5.30;100.00
28310;BME280;15571;50.974;13.936;2024-02-26T05:25:53;98870.00;;;5.21;100.00
28310;BME280;15571;50.974;13.936;2024-02-26T05:28:55;98870.00;;;5.24;100.00
28310;BME280;15571;50.974;13.936;2024-02-26T05:32:00;98871.66;;;5.34;100.00
28310;BME280;15571;50.974;13.936;2024-02-26T05:35:02;98877.00;;;5.09;100.00
28310;BME280;15571;50.974;13.936;2024-02-26T05:38:04;98876.97;;;5.08;100.00
28310;BME280;15571;50.974;13.936;2024-02-26T05:41:08;98879.66;;;4.89;100.00
28310;BME280;15571;50.974;13.936;2024-02-26T05:44:11;98885.72;;;4.83;100.00
28310;BME280;15571;50.974;13.936;2024-02-26T05:47:13;98876.28;;;4.70;100.00
28310;BME280;15571;50.974;13.936;2024-02-26T05:50:18;98883.13;;;4.80;100.00
28310;BME280;15571;50.974;13.936;2024-02-26T05:53:20;98884.84;;;4.91;100.00
28310;BME280;15571;50.974;13.936;2024-02-26T05:56:23;98889.16;;;4.95;100.00
28310;BME280;15571;50.974;13.936;2024-02-26T05:59:28;98886.66;;;4.75;100.00
28310;BME280;15571;50.974;13.936;2024-02-26T06:02:29;98893.47;;;4.93;100.00
28310;BME280;15571;50.974;13.936;2024-02-26T06:05:31;98896.09;;;4.80;100.00
28310;BME280;15571;50.974;13.936;2024-02-26T06:08:33;98892.69;;;4.72;100.00
28310;BME280;15571;50.974;13.936;2024-02-26T06:11:36;98884.91;;;4.72;100.00
28310;BME280;15571;50.974;13.936;2024-02-26T06:14:38;98890.13;;;4.58;100.00
28310;BME280;15571;50.974;13.936;2024-02-26T06:17:40;98890.16;;;4.50;100.00
28310;BME280;15571;50.974;13.936;2024-02-26T06:20:42;98897.03;;;4.62;100.00
28310;BME280;15571;50.974;13.936;2024-02-26T06:23:45;98884.94;;;4.63;100.00
28310;BME280;15571;50.974;13.936;2024-02-26T06:26:49;98888.41;;;4.63;100.00
28310;BME280;15571;50.974;13.936;2024-02-26T06:29:51;98889.28;;;4.51;100.00
28310;BME280;15571;50.974;13.936;2024-02-26T06:32:53;98894.41;;;4.76;100.00
28310;BME280;15571;50.974;13.936;2024-02-26T06:35:55;98893.56;;;4.66;100.00
28310;BME280;15571;50.974;13.936;2024-02-26T06:38:57;98898.75;;;4.73;100.00
28310;BME280;15571;50.974;13.936;2024-02-26T06:42:00;98893.56;;;4.73;100.00
28310;BME280;15571;50.974;13.936;2024-02-26T06:45:02;98888.38;;;4.70;100.00
28310;BME280;15571;50.974;13.936;2024-02-26T06:48:04;98898.75;;;4.62;100.00
28310;BME280;15571;50.974;13.936;2024-02-26T06:51:07;98896.16;;;4.62;100.00
28310;BME280;15571;50.974;13.936;2024-02-26T06:54:08;98887.50;;;4.72;100.00
28310;BME280;15571;50.974;13.936;2024-02-26T06:57:12;98892.66;;;4.81;100.00
28310;BME280;15571;50.974;13.936;2024-02-26T07:00:14;98889.19;;;4.89;100.00
28310;BME280;15571;50.974;13.936;2024-02-26T07:03:25;98892.56;;;5.09;100.00
28310;BME280;15571;50.974;13.936;2024-02-26T07:06:40;98894.38;;;4.86;100.00
28310;BME280;15571;50.974;13.936;2024-02-26T07:10:02;98895.97;;;5.11;100.00
28310;BME280;15571;50.974;13.936;2024-02-26T07:17:43;98891.47;;;5.49;100.00
28310;BME280;15571;50.974;13.936;2024-02-26T07:20:47;98891.44;;;5.54;100.00
28310;BME280;15571;50.974;13.936;2024-02-26T07:23:49;98893.09;;;5.67;100.00
28310;BME280;15571;50.974;13.936;2024-02-26T07:26:51;98892.16;;;5.78;100.00
28310;BME280;15571;50.974;13.936;2024-02-26T07:29:57;98895.63;;;5.76;100.00
28310;BME280;15571;50.974;13.936;2024-02-26T07:33:00;98892.88;;;5.95;100.00
28310;BME280;15571;50.974;13.936;2024-02-26T07:36:03;98888.69;;;5.74;100.00
28310;BME280;15571;50.974;13.936;2024-02-26T07:39:05;98889.44;;;5.91;100.00
28310;BME280;15571;50.974;13.936;2024-02-26T07:42:07;98884.19;;;5.98;100.00
28310;BME280;15571;50.974;13.936;2024-02-26T07:45:09;98893.72;;;5.97;100.00
28310;BME280;15571;50.974;13.936;2024-02-26T07:48:13;98892.88;;;5.95;100.00
28310;BME280;15571;50.974;13.936;2024-02-26T07:51:15;98898.03;;;5.97;100.00
28310;BME280;15571;50.974;13.936;2024-02-26T07:54:17;98888.53;;;6.00;100.00
28310;BME280;15571;50.974;13.936;2024-02-26T07:57:19;98893.63;;;6.13;100.00
28310;BME280;15571;50.974;13.936;2024-02-26T08:00:22;98890.09;;;6.21;100.00
28310;BME280;15571;50.974;13.936;2024-02-26T08:03:25;98891.75;;;6.27;100.00
28310;BME280;15571;50.974;13.936;2024-02-26T08:06:27;98897.75;;;6.35;100.00
28310;BME280;15571;50.974;13.936;2024-02-26T08:09:29;98895.13;;;6.37;100.00
28310;BME280;15571;50.974;13.936;2024-02-26T08:12:30;98892.41;;;6.49;100.00
28310;BME280;15571;50.974;13.936;2024-02-26T08:15:32;98881.84;;;6.65;100.00
28310;BME280;15571;50.974;13.936;2024-02-26T08:18:37;98890.31;;;6.84;100.00
28310;BME280;15571;50.974;13.936;2024-02-26T08:21:41;98900.75;;;6.79;100.00
28310;BME280;15571;50.974;13.936;2024-02-26T08:24:43;98892.69;;;7.03;100.00
28310;BME280;15571;50.974;13.936;2024-02-26T08:27:46;98909.00;;;7.15;100.00
28310;BME280;15571;50.974;13.936;2024-02-26T08:30:50;98907.03;;;7.35;100.00
28310;BME280;15571;50.974;13.936;2024-02-26T08:33:54;98917.31;;;7.44;100.00
28310;BME280;15571;50.974;13.936;2024-02-26T08:36:56;98913.63;;;7.57;100.00
28310;BME280;15571;50.974;13.936;2024-02-26T08:39:58;98916.25;;;7.57;100.00
28310;BME280;15571;50.974;13.936;2024-02-26T08:43:00;98909.88;;;7.77;100.00
28310;BME280;15571;50.974;13.936;2024-02-26T08:46:02;98915.00;;;7.83;100.00
28310;BME280;15571;50.974;13.936;2024-02-26T08:49:06;98911.31;;;7.97;100.00
28310;BME280;15571;50.974;13.936;2024-02-26T08:52:10;98908.56;;;8.06;100.00
28310;BME280;15571;50.974;13.936;2024-02-26T08:55:19;98909.41;;;8.08;100.00
28310;BME280;15571;50.974;13.936;2024-02-26T08:58:20;98907.34;;;8.25;100.00
28310;BME280;15571;50.974;13.936;2024-02-26T09:01:22;98907.16;;;8.38;100.00
28310;BME280;15571;50.974;13.936;2024-02-26T09:04:26;98908.25;;;8.26;100.00
28310;BME280;15571;50.974;13.936;2024-02-26T09:07:30;98913.22;;;8.40;100.00
28310;BME280;15571;50.974;13.936;2024-02-26T09:10:33;98911.44;;;8.42;100.00
28310;BME280;15571;50.974;13.936;2024-02-26T09:13:38;98909.28;;;8.66;100.00
28310;BME280;15571;50.974;13.936;2024-02-26T09:16:39;98899.97;;;8.98;100.00
28310;BME280;15571;50.974;13.936;2024-02-26T09:19:43;98893.81;;;9.00;100.00
28310;BME280;15571;50.974;13.936;2024-02-26T09:22:45;98894.69;;;9.01;100.00
28310;BME280;15571;50.974;13.936;2024-02-26T09:25:47;98886.50;;;9.18;100.00
28310;BME280;15571;50.974;13.936;2024-02-26T09:28:49;98895.94;;;9.25;100.00
28310;BME280;15571;50.974;13.936;2024-02-26T09:31:52;98901.19;;;9.24;100.00
28310;BME280;15571;50.974;13.936;2024-02-26T09:34:55;98899.88;;;9.43;100.00
28310;BME280;15571;50.974;13.936;2024-02-26T09:37:57;98904.69;;;9.62;100.00
28310;BME280;15571;50.974;13.936;2024-02-26T09:40:59;98910.59;;;9.70;100.00
28310;BME280;15571;50.974;13.936;2024-02-26T09:44:01;98910.50;;;9.75;100.00
28310;BME280;15571;50.974;13.936;2024-02-26T09:47:04;98910.41;;;9.79;100.00
28310;BME280;15571;50.974;13.936;2024-02-26T09:50:08;98910.75;;;9.64;100.00
28310;BME280;15571;50.974;13.936;2024-02-26T09:53:12;98905.25;;;9.76;100.00
28310;BME280;15571;50.974;13.936;2024-02-26T09:56:15;98906.53;;;9.96;100.00
28310;BME280;15571;50.974;13.936;2024-02-26T09:59:17;98902.69;;;10.09;100.00
28310;BME280;15571;50.974;13.936;2024-02-26T10:02:19;98904.50;;;10.07;100.00
28310;BME280;15571;50.974;13.936;2024-02-26T10:05:23;98913.63;;;10.25;100.00
28310;BME280;15571;50.974;13.936;2024-02-26T10:08:26;98921.59;;;10.21;100.00
28310;BME280;15571;50.974;13.936;2024-02-26T10:11:28;98925.97;;;10.20;100.00
28310;BME280;15571;50.974;13.936;2024-02-26T10:14:30;98921.22;;;10.38;100.00
28310;BME280;15571;50.974;13.936;2024-02-26T10:17:32;98928.06;;;10.43;100.00
28310;BME280;15571;50.974;13.936;2024-02-26T10:20:36;98929.34;;;10.60;100.00
28310;BME280;15571;50.974;13.936;2024-02-26T10:23:38;98932.63;;;10.68;100.00
28310;BME280;15571;50.974;13.936;2024-02-26T10:26:45;98934.78;;;10.85;100.00
28310;BME280;15571;50.974;13.936;2024-02-26T10:29:47;98920.75;;;10.88;100.00
28310;BME280;15571;50.974;13.936;2024-02-26T10:32:49;98917.13;;;10.94;100.00
28310;BME280;15571;50.974;13.936;2024-02-26T10:35:53;98921.25;;;11.02;100.00
28310;BME280;15571;50.974;13.936;2024-02-26T10:38:55;98922.06;;;11.04;100.00
28310;BME280;15571;50.974;13.936;2024-02-26T10:41:57;98923.13;;;10.97;100.00
28310;BME280;15571;50.974;13.936;2024-02-26T10:45:01;98922.28;;;10.97;100.00
28310;BME280;15571;50.974;13.936;2024-02-26T10:48:04;98918.06;;;10.91;100.00
28310;BME280;15571;50.974;13.936;2024-02-26T10:51:07;98917.22;;;10.90;100.00
28310;BME280;15571;50.974;13.936;2024-02-26T10:54:12;98919.84;;;10.89;100.00
28310;BME280;15571;50.974;13.936;2024-02-26T10:57:16;98926.13;;;10.83;100.00
28310;BME280;15571;50.974;13.936;2024-02-26T11:00:19;98935.00;;;10.78;100.00
28310;BME280;15571;50.974;13.936;2024-02-26T11:03:22;98930.59;;;10.80;100.00
28310;BME280;15571;50.974;13.936;2024-02-26T11:06:25;98929.66;;;10.82;100.00
28310;BME280;15571;50.974;13.936;2024-02-26T11:09:27;98930.59;;;10.80;100.00
28310;BME280;15571;50.974;13.936;2024-02-26T11:12:30;98932.16;;;10.87;100.00
28310;BME280;15571;50.974;13.936;2024-02-26T11:15:33;98924.13;;;10.93;100.00
28310;BME280;15571;50.974;13.936;2024-02-26T11:18:35;98922.69;;;11.13;100.00
28310;BME280;15571;50.974;13.936;2024-02-26T11:21:39;98921.25;;;11.02;100.00
28310;BME280;15571;50.974;13.936;2024-02-26T11:24:44;98916.84;;;11.34;100.00
28310;BME280;15571;50.974;13.936;2024-02-26T11:27:54;98920.09;;;11.43;100.00
28310;BME280;15571;50.974;13.936;2024-02-26T11:31:01;98919.13;;;11.45;100.00
28310;BME280;15571;50.974;13.936;2024-02-26T11:34:06;98908.75;;;11.71;100.00
28310;BME280;15571;50.974;13.936;2024-02-26T11:37:13;98919.69;;;11.85;100.00
28310;BME280;15571;50.974;13.936;2024-02-26T11:40:15;98915.13;;;11.90;100.00
28310;BME280;15571;50.974;13.936;2024-02-26T11:43:17;98908.78;;;11.99;100.00
28310;BME280;15571;50.974;13.936;2024-02-26T11:46:25;98914.66;;;12.06;100.00
28310;BME280;15571;50.974;13.936;2024-02-26T11:49:30;98913.50;;;12.14;100.00
28310;BME280;15571;50.974;13.936;2024-02-26T11:52:34;98905.78;;;12.10;100.00
28310;BME280;15571;50.974;13.936;2024-02-26T11:55:36;98903.09;;;12.13;100.00
28310;BME280;15571;50.974;13.936;2024-02-26T11:58:39;98904.50;;;12.23;100.00
28310;BME280;15571;50.974;13.936;2024-02-26T12:01:42;98898.22;;;12.27;100.00
28310;BME280;15571;50.974;13.936;2024-02-26T12:04:44;98894.78;;;12.25;100.00
28310;BME280;15571;50.974;13.936;2024-02-26T12:07:48;98896.50;;;12.26;100.00
28310;BME280;15571;50.974;13.936;2024-02-26T12:10:50;98900.59;;;12.35;100.00
28310;BME280;15571;50.974;13.936;2024-02-26T12:13:54;98900.16;;;12.22;100.00
28310;BME280;15571;50.974;13.936;2024-02-26T12:16:58;98904.66;;;12.19;100.00
28310;BME280;15571;50.974;13.936;2024-02-26T12:20:07;98911.41;;;12.26;100.00
28310;BME280;15571;50.974;13.936;2024-02-26T12:23:14;98912.06;;;12.33;100.00
28310;BME280;15571;50.974;13.936;2024-02-26T12:26:16;98908.41;;;12.37;100.00
28310;BME280;15571;50.974;13.936;2024-02-26T12:29:18;98913.53;;;12.40;100.00
28310;BME280;15571;50.974;13.936;2024-02-26T12:32:20;98923.63;;;12.52;100.00
28310;BME280;15571;50.974;13.936;2024-02-26T12:35:23;98917.34;;;12.56;100.00
28310;BME280;15571;50.974;13.936;2024-02-26T12:38:27;98916.13;;;12.67;100.00
28310;BME280;15571;50.974;13.936;2024-02-26T12:41:30;98917.50;;;12.77;100.00
28310;BME280;15571;50.974;13.936;2024-02-26T12:44:32;98906.91;;;12.80;100.00
28310;BME280;15571;50.974;13.936;2024-02-26T12:47:34;98914.06;;;12.75;100.00
28310;BME280;15571;50.974;13.936;2024-02-26T12:50:36;98914.81;;;12.79;100.00
28310;BME280;15571;50.974;13.936;2024-02-26T12:53:39;98910.00;;;12.91;100.00
28310;BME280;15571;50.974;13.936;2024-02-26T12:56:42;98911.09;;;12.86;100.00
28310;BME280;15571;50.974;13.936;2024-02-26T12:59:44;98906.81;;;12.83;100.00
28310;BME280;15571;50.974;13.936;2024-02-26T13:02:46;98912.81;;;12.87;100.00
28310;BME280;15571;50.974;13.936;2024-02-26T13:05:48;98918.22;;;12.82;100.00
28310;BME280;15571;50.974;13.936;2024-02-26T13:08:55;98914.69;;;12.83;100.00
28310;BME280;15571;50.974;13.936;2024-02-26T13:12:03;98915.59;;;12.82;100.00
28310;BME280;15571;50.974;13.936;2024-02-26T13:15:05;98924.25;;;12.84;100.00
28310;BME280;15571;50.974;13.936;2024-02-26T13:18:11;98924.00;;;12.92;100.00
28310;BME280;15571;50.974;13.936;2024-02-26T13:21:14;98920.38;;;12.95;100.00
28310;BME280;15571;50.974;13.936;2024-02-26T13:24:19;98934.50;;;12.92;100.00
28310;BME280;15571;50.974;13.936;2024-02-26T13:27:21;98944.09;;;12.93;100.00
28310;BME280;15571;50.974;13.936;2024-02-26T13:30:26;98939.59;;;12.97;100.00
28310;BME280;15571;50.974;13.936;2024-02-26T13:33:29;98930.78;;;12.98;100.00
28310;BME280;15571;50.974;13.936;2024-02-26T13:36:31;98934.06;;;13.04;100.00
28310;BME280;15571;50.974;13.936;2024-02-26T13:39:35;98941.06;;;13.04;100.00
28310;BME280;15571;50.974;13.936;2024-02-26T13:42:36;98932.50;;;12.99;100.00
28310;BME280;15571;50.974;13.936;2024-02-26T13:45:39;98935.06;;;13.00;100.00
28310;BME280;15571;50.974;13.936;2024-02-26T13:48:41;98938.34;;;13.07;100.00
28310;BME280;15571;50.974;13.936;2024-02-26T13:51:46;98935.72;;;13.07;100.00
28310;BME280;15571;50.974;13.936;2024-02-26T13:54:49;98938.50;;;13.02;100.00
28310;BME280;15571;50.974;13.936;2024-02-26T13:57:51;98938.84;;;12.93;100.00
28310;BME280;15571;50.974;13.936;2024-02-26T14:00:54;98941.63;;;12.88;100.00
28310;BME280;15571;50.974;13.936;2024-02-26T14:03:56;98932.50;;;12.99;100.00
28310;BME280;15571;50.974;13.936;2024-02-26T14:06:58;98942.16;;;12.98;100.00
28310;BME280;15571;50.974;13.936;2024-02-26T14:10:01;98943.03;;;12.99;100.00
28310;BME280;15571;50.974;13.936;2024-02-26T14:13:03;98944.00;;;12.96;100.00
28310;BME280;15571;50.974;13.936;2024-02-26T14:16:05;98950.09;;;12.97;100.00
28310;BME280;15571;50.974;13.936;2024-02-26T14:19:07;98955.44;;;12.93;100.00
28310;BME280;15571;50.974;13.936;2024-02-26T14:22:10;98952.13;;;12.88;100.00
28310;BME280;15571;50.974;13.936;2024-02-26T14:25:14;98958.19;;;12.90;100.00
28310;BME280;15571;50.974;13.936;2024-02-26T14:28:15;98958.56;;;12.80;100.00
28310;BME280;15571;50.974;13.936;2024-02-26T14:31:17;98966.41;;;12.81;100.00
28310;BME280;15571;50.974;13.936;2024-02-26T14:34:19;98962.88;;;12.82;100.00
28310;BME280;15571;50.974;13.936;2024-02-26T14:37:21;98972.56;;;12.80;100.00
28310;BME280;15571;50.974;13.936;2024-02-26T14:40:25;98969.06;;;12.80;100.00
28310;BME280;15571;50.974;13.936;2024-02-26T14:43:30;98980.53;;;12.77;100.00
28310;BME280;15571;50.974;13.936;2024-02-26T14:46:33;98978.00;;;12.74;100.00
28310;BME280;15571;50.974;13.936;2024-02-26T14:49:34;98982.56;;;12.69;100.00
28310;BME280;15571;50.974;13.936;2024-02-26T14:52:36;98988.72;;;12.68;100.00
28310;BME280;15571;50.974;13.936;2024-02-26T14:55:40;98990.53;;;12.66;100.00
28310;BME280;15571;50.974;13.936;2024-02-26T14:58:41;99009.94;;;12.61;100.00
28310;BME280;15571;50.974;13.936;2024-02-26T15:01:43;99001.31;;;12.58;100.00
28310;BME280;15571;50.974;13.936;2024-02-26T15:04:49;99008.38;;;12.56;100.00
28310;BME280;15571;50.974;13.936;2024-02-26T15:07:51;99010.19;;;12.54;100.00
28310;BME280;15571;50.974;13.936;2024-02-26T15:10:57;99021.69;;;12.50;100.00
28310;BME280;15571;50.974;13.936;2024-02-26T15:13:59;99024.31;;;12.50;100.00
28310;BME280;15571;50.974;13.936;2024-02-26T15:17:01;99020.78;;;12.51;100.00
28310;BME280;15571;50.974;13.936;2024-02-26T15:20:03;99021.00;;;12.44;100.00
28310;BME280;15571;50.974;13.936;2024-02-26T15:23:09;99020.16;;;12.44;100.00
28310;BME280;15571;50.974;13.936;2024-02-26T15:26:13;99023.47;;;12.49;100.00
28310;BME280;15571;50.974;13.936;2024-02-26T15:29:15;99021.84;;;12.45;100.00
28310;BME280;15571;50.974;13.936;2024-02-26T15:32:17;99022.81;;;12.42;100.00
28310;BME280;15571;50.974;13.936;2024-02-26T15:35:19;99017.63;;;12.41;100.00
28310;BME280;15571;50.974;13.936;2024-02-26T15:38:20;99018.53;;;12.40;100.00
28310;BME280;15571;50.974;13.936;2024-02-26T15:41:24;99013.38;;;12.37;100.00
28310;BME280;15571;50.974;13.936;2024-02-26T15:44:26;99018.72;;;12.34;100.00
28310;BME280;15571;50.974;13.936;2024-02-26T15:47:28;99018.00;;;12.28;100.00
28310;BME280;15571;50.974;13.936;2024-02-26T15:50:30;99019.06;;;12.23;100.00
28310;BME280;15571;50.974;13.936;2024-02-26T15:53:32;99033.13;;;12.20;100.00
28310;BME280;15571;50.974;13.936;2024-02-26T15:56:35;99039.38;;;12.16;100.00